Аэропорт: Сыктывкар. Сыктывкар

ICAO: UUYY

METAR:
2019/03/26 13:00
UUYY 261300Z 24003MPS 9999 SCT023CB BKN046 03/M02 Q0999 R18/29//51 TEMPO 1000 SHSN RMK QFE741/0988
METAR:
2019/03/26 12:24
TAF TAF UUYY 261100Z 2612/2712 26005G10MPS 3100 -SHSN BKN011 BKN015CB 
      TEMPO 2612/2615 24007G15MPS 0500 +SHSN FEW005 BKN012CB 
      TEMPO 2615/2617 22005G10MPS 1000 SHSN BKN007 BKN015CB 
     FM261700 22003G08MPS 3100 -SHSN BR BKN007 BKN015CB 
      TEMPO 2617/2706 22003MPS 0300 FZFG BKN002 
      TEMPO 2706/2712 17003G08MPS 1000 SHSN BR BKN003 BKN012CB